createdAt,value
2018-06-19T00:01:04.613Z,0
2018-06-19T00:02:09.203Z,0
2018-06-19T00:03:14.349Z,0
2018-06-19T00:04:19.758Z,0
2018-06-19T00:05:25.201Z,0
2018-06-19T00:06:30.673Z,0
2018-06-19T00:07:35.845Z,0
2018-06-19T00:08:40.996Z,0
2018-06-19T00:09:46.794Z,0
2018-06-19T00:10:52.257Z,0
2018-06-19T00:11:57.405Z,0
2018-06-19T00:13:02.506Z,0
2018-06-19T00:14:06.825Z,0
2018-06-19T00:15:12.269Z,0
2018-06-19T00:16:17.671Z,0
2018-06-19T00:17:22.581Z,0
2018-06-19T00:18:28.027Z,0
2018-06-19T00:19:33.180Z,0
2018-06-19T00:20:38.057Z,0
2018-06-19T00:21:43.615Z,0
2018-06-19T00:22:48.778Z,0
2018-06-19T00:23:53.936Z,0
2018-06-19T00:24:59.489Z,0
2018-06-19T00:26:04.353Z,0
2018-06-19T00:27:08.944Z,0
2018-06-19T00:28:14.623Z,0
2018-06-19T00:29:19.801Z,0
2018-06-19T00:30:25.786Z,0
2018-06-19T00:31:31.653Z,0
2018-06-19T00:32:36.808Z,0
2018-06-19T00:33:42.539Z,0
2018-06-19T00:34:47.686Z,0
2018-06-19T00:35:52.860Z,0
2018-06-19T00:36:58.657Z,0
2018-06-19T00:38:03.526Z,0
2018-06-19T00:39:07.838Z,0
2018-06-19T00:40:12.717Z,0
2018-06-19T00:41:17.593Z,0
2018-06-19T00:42:22.467Z,0
2018-06-19T00:43:27.833Z,0
2018-06-19T00:44:32.998Z,0
2018-06-19T00:45:38.272Z,0
2018-06-19T00:46:43.468Z,0
2018-06-19T00:47:48.615Z,0
2018-06-19T00:48:54.529Z,0
2018-06-19T00:49:59.684Z,0
2018-06-19T00:51:04.553Z,0
2018-06-19T00:52:09.817Z,0
2018-06-19T00:53:14.980Z,0
2018-06-19T00:54:20.443Z,0
2018-06-19T00:55:26.130Z,0
2018-06-19T00:56:31.388Z,0
2018-06-19T00:57:36.524Z,0
2018-06-19T00:58:41.678Z,0
2018-06-19T00:59:47.277Z,0
2018-06-19T01:00:52.819Z,0
2018-06-19T01:01:58.250Z,0
2018-06-19T01:03:03.683Z,0
2018-06-19T01:04:08.959Z,0
2018-06-19T01:05:13.833Z,0
2018-06-19T01:06:19.265Z,0
2018-06-19T01:07:24.682Z,0
2018-06-19T01:08:29.563Z,0
2018-06-19T01:09:35.177Z,0
2018-06-19T01:10:40.053Z,0
2018-06-19T01:11:45.206Z,0
2018-06-19T01:12:50.416Z,0
2018-06-19T01:13:55.581Z,0
2018-06-19T01:15:00.733Z,0
2018-06-19T01:16:06.434Z,0
2018-06-19T01:17:11.860Z,0
2018-06-19T01:18:17.308Z,0
2018-06-19T01:19:22.726Z,0
2018-06-19T01:20:28.164Z,0
2018-06-19T01:21:33.740Z,0
2018-06-19T01:22:38.897Z,0
2018-06-19T01:23:43.800Z,0
2018-06-19T01:24:49.218Z,0
2018-06-19T01:25:54.649Z,0
2018-06-19T01:27:00.080Z,0
2018-06-19T01:28:05.031Z,0
2018-06-19T01:29:10.190Z,0
2018-06-19T01:30:15.346Z,0
2018-06-19T01:31:20.753Z,0
2018-06-19T01:32:25.904Z,0
2018-06-19T01:33:30.859Z,0
2018-06-19T01:34:36.306Z,0
2018-06-19T01:35:41.460Z,0
2018-06-19T01:36:46.742Z,0
2018-06-19T01:37:52.213Z,0
2018-06-19T01:38:57.405Z,0
2018-06-19T01:40:03.383Z,0
2018-06-19T01:41:08.537Z,0
2018-06-19T01:42:13.427Z,0
2018-06-19T01:43:19.106Z,0
2018-06-19T01:44:24.536Z,0
2018-06-19T01:45:29.844Z,0
2018-06-19T01:46:35.018Z,0
2018-06-19T01:47:40.181Z,0
2018-06-19T01:48:45.576Z,0
2018-06-19T01:49:49.888Z,0
2018-06-19T01:50:55.041Z,0
2018-06-19T01:52:00.593Z,0
2018-06-19T01:53:05.470Z,0
2018-06-19T01:54:10.902Z,0
2018-06-19T01:55:16.584Z,0
2018-06-19T01:56:21.190Z,0
2018-06-19T01:57:26.904Z,0
2018-06-19T01:58:32.067Z,0
2018-06-19T01:59:37.216Z,0
2018-06-19T02:00:43.061Z,0
2018-06-19T02:01:48.510Z,0
2018-06-19T02:02:53.949Z,0
2018-06-19T02:03:59.343Z,0
2018-06-19T02:05:04.496Z,0
2018-06-19T02:06:09.657Z,0
2018-06-19T02:07:15.073Z,0
2018-06-19T02:08:20.502Z,0
2018-06-19T02:09:26.697Z,0
2018-06-19T02:10:32.139Z,0
2018-06-19T02:11:37.301Z,0
2018-06-19T02:12:42.987Z,0
2018-06-19T02:13:47.852Z,0
2018-06-19T02:14:53.322Z,0
2018-06-19T02:15:58.732Z,0
2018-06-19T02:17:04.181Z,0
2018-06-19T02:18:09.610Z,0
2018-06-19T02:19:14.772Z,0
2018-06-19T02:20:19.673Z,0
2018-06-19T02:21:40.265Z,0
2018-06-19T02:22:45.131Z,0
2018-06-19T02:23:50.000Z,0
2018-06-19T02:24:55.426Z,0
2018-06-19T02:26:00.857Z,0
2018-06-19T02:27:05.725Z,0
2018-06-19T02:28:11.237Z,0
2018-06-19T02:29:15.815Z,0
2018-06-19T02:30:21.250Z,0
2018-06-19T02:31:26.506Z,0
2018-06-19T02:32:31.391Z,0
2018-06-19T02:33:37.146Z,0
2018-06-19T02:34:42.579Z,0
2018-06-19T02:35:47.487Z,0
2018-06-19T02:36:53.008Z,0
2018-06-19T02:37:58.438Z,0
2018-06-19T02:39:03.597Z,0
2018-06-19T02:40:08.457Z,0
2018-06-19T02:41:13.626Z,0
2018-06-19T02:42:18.508Z,0
2018-06-19T02:43:24.200Z,0
2018-06-19T02:44:29.644Z,0
2018-06-19T02:45:35.612Z,0
2018-06-19T02:46:40.766Z,0
2018-06-19T02:47:45.642Z,0
2018-06-19T02:48:50.474Z,0
2018-06-19T02:49:55.921Z,0
2018-06-19T02:51:01.413Z,0
2018-06-19T02:52:06.275Z,0
2018-06-19T02:53:10.860Z,0
2018-06-19T02:54:16.296Z,0
2018-06-19T02:55:21.997Z,0
2018-06-19T02:56:26.865Z,0
2018-06-19T02:57:32.096Z,0
2018-06-19T02:58:37.541Z,0
2018-06-19T02:59:42.692Z,0
2018-06-19T03:00:48.380Z,0
2018-06-19T03:01:53.542Z,0
2018-06-19T03:02:58.694Z,0
2018-06-19T03:04:04.481Z,0
2018-06-19T03:05:09.361Z,0
2018-06-19T03:06:14.804Z,0
2018-06-19T03:07:20.485Z,0
2018-06-19T03:08:25.916Z,0
2018-06-19T03:09:31.853Z,0
2018-06-19T03:10:36.152Z,0
2018-06-19T03:11:41.330Z,0
2018-06-19T03:12:46.881Z,0
2018-06-19T03:13:51.759Z,0
2018-06-19T03:14:56.903Z,0
2018-06-19T03:16:02.596Z,0
2018-06-19T03:17:07.759Z,0
2018-06-19T03:18:12.633Z,0
2018-06-19T03:19:18.049Z,0
2018-06-19T03:20:23.481Z,0
2018-06-19T03:21:29.038Z,0
2018-06-19T03:22:34.200Z,0
2018-06-19T03:23:39.633Z,0
2018-06-19T03:24:44.951Z,0
2018-06-19T03:25:49.827Z,0
2018-06-19T03:26:54.969Z,0
2018-06-19T03:28:00.440Z,0
2018-06-19T03:29:05.909Z,0
2018-06-19T03:30:11.353Z,0
2018-06-19T03:31:16.957Z,0
2018-06-19T03:32:22.386Z,0
2018-06-19T03:33:28.371Z,0
2018-06-19T03:34:33.528Z,0
2018-06-19T03:35:38.397Z,0
2018-06-19T03:36:44.334Z,0
2018-06-19T03:37:49.214Z,0
2018-06-19T03:38:54.095Z,0
2018-06-19T03:39:59.507Z,0
2018-06-19T03:41:04.098Z,0
2018-06-19T03:42:09.544Z,0
2018-06-19T03:43:14.553Z,0
2018-06-19T03:44:20.001Z,0
2018-06-19T03:45:26.213Z,0
2018-06-19T03:46:31.659Z,0
2018-06-19T03:47:36.537Z,0
2018-06-19T03:48:42.112Z,0
2018-06-19T03:49:47.258Z,0
2018-06-19T03:50:51.839Z,0
2018-06-19T03:51:57.535Z,0
2018-06-19T03:53:02.441Z,0
2018-06-19T03:54:07.309Z,0
2018-06-19T03:55:12.427Z,0
2018-06-19T03:56:17.602Z,0
2018-06-19T03:57:22.769Z,0
2018-06-19T03:58:28.175Z,0
2018-06-19T03:59:33.046Z,0
2018-06-19T04:00:38.945Z,0
2018-06-19T04:01:43.804Z,0
2018-06-19T04:02:48.967Z,0
2018-06-19T04:03:54.400Z,0
2018-06-19T04:04:59.829Z,0
2018-06-19T04:06:04.418Z,0
2018-06-19T04:07:09.697Z,0
2018-06-19T04:08:14.573Z,0
2018-06-19T04:09:19.169Z,0
2018-06-19T04:10:25.114Z,0
2018-06-19T04:11:30.045Z,0
2018-06-19T04:12:35.826Z,0
2018-06-19T04:13:41.261Z,0
2018-06-19T04:14:46.709Z,0
2018-06-19T04:15:51.975Z,0
2018-06-19T04:16:56.836Z,0
2018-06-19T04:18:02.000Z,0
2018-06-19T04:19:07.132Z,0
2018-06-19T04:20:12.572Z,0
2018-06-19T04:21:17.752Z,0
2018-06-19T04:22:23.462Z,0
2018-06-19T04:23:28.331Z,0
2018-06-19T04:24:33.738Z,0
2018-06-19T04:25:38.884Z,0
2018-06-19T04:26:44.318Z,0
2018-06-19T04:27:49.996Z,0
2018-06-19T04:28:55.165Z,0
2018-06-19T04:30:00.317Z,0
2018-06-19T04:31:05.815Z,0
2018-06-19T04:32:11.017Z,0
2018-06-19T04:33:16.219Z,0
2018-06-19T04:34:21.623Z,6
2018-06-19T04:35:26.786Z,6
2018-06-19T04:36:32.440Z,6
2018-06-19T04:37:37.592Z,6
2018-06-19T04:38:42.733Z,24
2018-06-19T04:39:48.136Z,24
2018-06-19T04:40:53.032Z,24
2018-06-19T04:41:57.912Z,24
2018-06-19T04:43:03.401Z,24
2018-06-19T04:44:08.572Z,24
2018-06-19T04:45:14.004Z,24
2018-06-19T04:46:19.693Z,24
2018-06-19T04:47:25.118Z,6
2018-06-19T04:48:30.984Z,6
2018-06-19T04:49:36.442Z,6
2018-06-19T04:50:41.961Z,6
2018-06-19T04:51:47.263Z,6
2018-06-19T04:52:52.417Z,6
2018-06-19T04:53:57.562Z,0
2018-06-19T04:55:02.678Z,6
2018-06-19T04:56:07.595Z,6
2018-06-19T04:57:12.719Z,6
2018-06-19T04:58:18.407Z,6
2018-06-19T04:59:23.837Z,24
2018-06-19T05:00:29.521Z,24
2018-06-19T05:01:34.671Z,24
2018-06-19T05:02:39.817Z,24
2018-06-19T05:03:45.775Z,24
2018-06-19T05:04:51.228Z,24
2018-06-19T05:05:56.670Z,24
2018-06-19T05:07:01.812Z,24
2018-06-19T05:08:06.385Z,24
2018-06-19T05:09:11.261Z,24
2018-06-19T05:10:16.681Z,40
2018-06-19T05:11:21.830Z,40
2018-06-19T05:12:27.717Z,40
2018-06-19T05:13:32.874Z,55
2018-06-19T05:14:37.520Z,55
2018-06-19T05:15:43.334Z,55
2018-06-19T05:16:48.773Z,55
2018-06-19T05:17:53.657Z,55
2018-06-19T05:18:59.385Z,55
2018-06-19T05:20:03.699Z,55
2018-06-19T05:21:08.306Z,40
2018-06-19T05:22:13.710Z,40
2018-06-19T05:23:18.590Z,40
2018-06-19T05:24:23.469Z,24
2018-06-19T05:25:43.600Z,24
2018-06-19T05:26:48.770Z,24
2018-06-19T05:27:54.014Z,24
2018-06-19T05:28:59.445Z,24
2018-06-19T05:30:04.323Z,24
2018-06-19T05:31:09.454Z,24
2018-06-19T05:32:14.609Z,24
2018-06-19T05:33:19.758Z,6
2018-06-19T05:34:25.435Z,6
2018-06-19T05:35:30.588Z,24
2018-06-19T05:36:36.434Z,24
2018-06-19T05:37:41.577Z,24
2018-06-19T05:38:47.013Z,24
2018-06-19T05:39:52.530Z,24
2018-06-19T05:40:57.669Z,24
2018-06-19T05:42:03.099Z,24
2018-06-19T05:43:08.519Z,24
2018-06-19T05:44:13.136Z,40
2018-06-19T05:45:18.568Z,40
2018-06-19T05:46:24.436Z,40
2018-06-19T05:47:29.934Z,40
2018-06-19T05:48:35.327Z,40
2018-06-19T05:49:40.674Z,40
2018-06-19T05:50:45.839Z,40
2018-06-19T05:51:51.243Z,40
2018-06-19T05:52:56.803Z,40
2018-06-19T05:54:02.235Z,40
2018-06-19T05:55:07.215Z,55
2018-06-19T05:56:12.386Z,55
2018-06-19T05:57:17.818Z,55
2018-06-19T05:58:23.609Z,55
2018-06-19T05:59:29.054Z,55
2018-06-19T06:00:33.837Z,55
2018-06-19T06:01:39.267Z,55
2018-06-19T06:02:44.705Z,48
2018-06-19T06:03:50.124Z,48
2018-06-19T06:04:55.287Z,48
2018-06-19T06:06:00.730Z,48
2018-06-19T06:07:05.845Z,48
2018-06-19T06:08:10.872Z,48
2018-06-19T06:09:16.032Z,48
2018-06-19T06:10:21.714Z,48
2018-06-19T06:11:26.874Z,48
2018-06-19T06:12:32.757Z,48
2018-06-19T06:13:37.906Z,64
2018-06-19T06:14:42.787Z,80
2018-06-19T06:15:47.924Z,96
2018-06-19T06:16:53.368Z,88
2018-06-19T06:17:58.825Z,88
2018-06-19T06:19:04.375Z,72
2018-06-19T06:20:09.534Z,72
2018-06-19T06:21:14.690Z,88
2018-06-19T06:22:19.947Z,88
2018-06-19T06:23:25.388Z,88
2018-06-19T06:24:31.072Z,88
2018-06-19T06:25:36.501Z,88
2018-06-19T06:26:41.656Z,88
2018-06-19T06:27:46.985Z,104
2018-06-19T06:28:52.005Z,104
2018-06-19T06:29:57.438Z,104
2018-06-19T06:31:02.336Z,104
2018-06-19T06:32:06.939Z,104
2018-06-19T06:33:12.380Z,104
2018-06-19T06:34:17.950Z,104
2018-06-19T06:35:23.402Z,104
2018-06-19T06:36:29.403Z,104
2018-06-19T06:37:34.281Z,121
2018-06-19T06:38:39.711Z,121
2018-06-19T06:39:45.406Z,136
2018-06-19T06:40:50.579Z,136
2018-06-19T06:41:55.735Z,136
2018-06-19T06:43:01.141Z,121
2018-06-19T06:44:05.750Z,121
2018-06-19T06:45:10.362Z,104
2018-06-19T06:46:15.888Z,104
2018-06-19T06:47:20.764Z,104
2018-06-19T06:48:41.244Z,104
2018-06-19T06:49:46.111Z,104
2018-06-19T06:50:51.264Z,104
2018-06-19T06:51:56.481Z,104
2018-06-19T06:53:01.650Z,88
2018-06-19T06:54:06.728Z,104
2018-06-19T06:55:12.413Z,88
2018-06-19T06:56:17.271Z,88
2018-06-19T06:57:22.701Z,88
2018-06-19T06:58:28.055Z,72
2018-06-19T06:59:33.224Z,72
2018-06-19T07:00:38.799Z,88
2018-06-19T07:01:44.228Z,88
2018-06-19T07:02:49.158Z,72
2018-06-19T07:03:54.841Z,88
2018-06-19T07:05:00.476Z,88
2018-06-19T07:06:05.637Z,88
2018-06-19T07:07:10.753Z,88
2018-06-19T07:08:15.906Z,88
2018-06-19T07:09:21.072Z,88
2018-06-19T07:10:25.921Z,104
2018-06-19T07:11:30.797Z,104
2018-06-19T07:12:36.494Z,317
2018-06-19T07:13:41.350Z,302
2018-06-19T07:14:46.502Z,302
2018-06-19T07:15:52.545Z,287
2018-06-19T07:16:57.736Z,302
2018-06-19T07:18:02.050Z,302
2018-06-19T07:19:07.359Z,287
2018-06-19T07:20:12.663Z,287
2018-06-19T07:21:18.095Z,287
2018-06-19T07:22:23.773Z,287
2018-06-19T07:23:28.680Z,272
2018-06-19T07:24:33.813Z,272
2018-06-19T07:25:38.986Z,272
2018-06-19T07:26:44.507Z,277
2018-06-19T07:27:49.794Z,292
2018-06-19T07:28:54.940Z,292
2018-06-19T07:29:59.521Z,292
2018-06-19T07:31:04.716Z,292
2018-06-19T07:32:10.326Z,292
2018-06-19T07:33:15.482Z,292
2018-06-19T07:34:21.182Z,292
2018-06-19T07:35:26.381Z,287
2018-06-19T07:36:31.512Z,287
2018-06-19T07:37:36.378Z,292
2018-06-19T07:38:41.544Z,287
2018-06-19T07:39:47.333Z,287
2018-06-19T07:40:52.507Z,277
2018-06-19T07:41:57.651Z,277
2018-06-19T07:43:02.239Z,277
2018-06-19T07:44:07.983Z,277
2018-06-19T07:45:13.416Z,277
2018-06-19T07:46:18.652Z,277
2018-06-19T07:47:23.527Z,277
2018-06-19T07:48:28.674Z,292
2018-06-19T07:49:34.353Z,292
2018-06-19T07:50:39.875Z,292
2018-06-19T07:51:46.996Z,292
2018-06-19T07:52:52.144Z,277
2018-06-19T07:53:57.296Z,262
2018-06-19T07:55:02.482Z,262
2018-06-19T07:56:07.359Z,262
2018-06-19T07:57:12.593Z,262
2018-06-19T07:58:18.008Z,262
2018-06-19T07:59:23.487Z,262
2018-06-19T08:00:28.476Z,262
2018-06-19T08:01:33.639Z,262
2018-06-19T08:02:38.984Z,247
2018-06-19T08:03:44.497Z,262
2018-06-19T08:04:49.397Z,277
2018-06-19T08:05:54.992Z,277
2018-06-19T08:07:00.828Z,262
2018-06-19T08:08:05.991Z,262
2018-06-19T08:09:10.874Z,262
2018-06-19T08:10:16.134Z,262
2018-06-19T08:11:21.599Z,262
2018-06-19T08:12:41.375Z,262
2018-06-19T08:13:45.966Z,277
2018-06-19T08:14:51.428Z,262
2018-06-19T08:15:56.410Z,262
2018-06-19T08:17:01.562Z,262
2018-06-19T08:18:05.882Z,262
2018-06-19T08:19:11.725Z,262
2018-06-19T08:20:17.336Z,262
2018-06-19T08:21:22.490Z,262
2018-06-19T08:22:27.732Z,262
2018-06-19T08:23:32.880Z,277
2018-06-19T08:24:37.994Z,292
2018-06-19T08:25:43.177Z,292
2018-06-19T08:26:48.321Z,292
2018-06-19T08:27:52.871Z,277
2018-06-19T08:28:58.037Z,262
2018-06-19T08:30:02.910Z,292
2018-06-19T08:31:08.028Z,272
2018-06-19T08:32:13.172Z,287
2018-06-19T08:33:18.610Z,287
2018-06-19T08:34:23.457Z,287
2018-06-19T08:35:28.072Z,302
2018-06-19T08:36:33.053Z,302
2018-06-19T08:37:38.239Z,302
2018-06-19T08:38:42.843Z,287
2018-06-19T08:39:48.257Z,287
2018-06-19T08:40:52.555Z,287
2018-06-19T08:41:57.142Z,287
2018-06-19T08:43:02.274Z,287
2018-06-19T08:44:07.154Z,287
2018-06-19T08:45:11.468Z,287
2018-06-19T08:46:17.358Z,287
2018-06-19T08:47:22.276Z,287
2018-06-19T08:48:27.824Z,302
2018-06-19T08:49:33.270Z,317
2018-06-19T08:50:37.863Z,317
2018-06-19T08:51:43.286Z,317
2018-06-19T08:52:48.719Z,317
2018-06-19T08:53:53.886Z,302
2018-06-19T08:54:59.513Z,302
2018-06-19T08:56:04.594Z,287
2018-06-19T08:57:09.747Z,272
2018-06-19T08:58:14.984Z,287
2018-06-19T08:59:20.141Z,287
2018-06-19T09:00:40.595Z,292
2018-06-19T09:01:45.803Z,292
2018-06-19T09:02:50.951Z,272
2018-06-19T09:03:56.513Z,292
2018-06-19T09:05:01.679Z,277
2018-06-19T09:06:06.553Z,277
2018-06-19T09:07:11.988Z,277
2018-06-19T09:08:16.866Z,277
2018-06-19T09:09:22.471Z,292
2018-06-19T09:10:27.916Z,292
2018-06-19T09:11:32.795Z,292
2018-06-19T09:12:37.753Z,292
2018-06-19T09:13:43.124Z,277
2018-06-19T09:14:48.269Z,292
2018-06-19T09:15:53.958Z,277
2018-06-19T09:16:59.158Z,277
2018-06-19T09:18:04.230Z,277
2018-06-19T09:19:09.707Z,287
2018-06-19T09:20:15.321Z,292
2018-06-19T09:21:20.903Z,287
2018-06-19T09:22:26.341Z,277
2018-06-19T09:23:31.487Z,277
2018-06-19T09:24:36.992Z,292
2018-06-19T09:25:42.423Z,292
2018-06-19T09:26:47.984Z,287
2018-06-19T09:27:53.400Z,317
2018-06-19T09:28:58.556Z,333
2018-06-19T09:30:03.428Z,312
2018-06-19T09:31:08.845Z,358
2018-06-19T09:32:14.043Z,367
2018-06-19T09:33:19.184Z,367
2018-06-19T09:34:24.054Z,367
2018-06-19T09:35:28.682Z,383
2018-06-19T09:36:33.914Z,408
2018-06-19T09:37:38.826Z,398
2018-06-19T09:38:43.979Z,367
2018-06-19T09:39:49.826Z,367
2018-06-19T09:40:56.079Z,352
2018-06-19T09:42:01.238Z,342
2018-06-19T09:43:06.939Z,312
2018-06-19T09:44:12.390Z,317
2018-06-19T09:45:17.838Z,317
2018-06-19T09:46:23.345Z,333
2018-06-19T09:47:27.926Z,277
2018-06-19T09:48:33.383Z,342
2018-06-19T09:49:38.263Z,342
2018-06-19T09:50:43.707Z,342
2018-06-19T09:51:49.494Z,327
2018-06-19T09:52:54.128Z,342
2018-06-19T09:53:59.197Z,373
2018-06-19T09:55:03.716Z,352
2018-06-19T09:56:08.883Z,337
2018-06-19T09:57:14.051Z,358
2018-06-19T09:58:20.199Z,327
2018-06-19T09:59:25.753Z,312
2018-06-19T10:00:31.273Z,312
2018-06-19T10:01:36.467Z,312
2018-06-19T10:02:40.803Z,317
2018-06-19T10:03:46.355Z,317
2018-06-19T10:04:51.229Z,317
2018-06-19T10:05:56.377Z,302
2018-06-19T10:07:01.912Z,317
2018-06-19T10:08:06.230Z,317
2018-06-19T10:09:11.403Z,333
2018-06-19T10:10:15.998Z,327
2018-06-19T10:11:21.145Z,342
2018-06-19T10:12:27.340Z,342
2018-06-19T10:13:32.218Z,358
2018-06-19T10:14:37.674Z,352
2018-06-19T10:15:42.285Z,352
2018-06-19T10:16:47.921Z,352
2018-06-19T10:17:53.079Z,337
2018-06-19T10:18:58.236Z,367
2018-06-19T10:20:03.685Z,352
2018-06-19T10:21:09.176Z,352
2018-06-19T10:22:14.058Z,352
2018-06-19T10:23:19.515Z,367
2018-06-19T10:24:24.385Z,367
2018-06-19T10:25:29.492Z,383
2018-06-19T10:26:34.953Z,377
2018-06-19T10:27:40.467Z,408
2018-06-19T10:28:46.128Z,438
2018-06-19T10:29:51.563Z,433
2018-06-19T10:30:56.397Z,433
2018-06-19T10:32:01.550Z,433
2018-06-19T10:33:06.140Z,448
2018-06-19T10:34:11.363Z,448
2018-06-19T10:35:15.953Z,423
2018-06-19T10:36:21.100Z,448
2018-06-19T10:37:41.204Z,448
2018-06-19T10:38:46.359Z,463
2018-06-19T10:39:51.808Z,463
2018-06-19T10:40:56.962Z,463
2018-06-19T10:42:01.825Z,458
2018-06-19T10:43:06.118Z,458
2018-06-19T10:44:11.030Z,417
2018-06-19T10:45:16.192Z,417
2018-06-19T10:46:21.759Z,392
2018-06-19T10:47:26.636Z,362
2018-06-19T10:48:31.764Z,383
2018-06-19T10:49:37.130Z,392
2018-06-19T10:50:42.561Z,417
2018-06-19T10:51:48.250Z,423
2018-06-19T10:52:53.998Z,392
2018-06-19T10:53:59.143Z,352
2018-06-19T10:55:03.716Z,352
2018-06-19T10:56:08.872Z,337
2018-06-19T10:57:13.478Z,352
2018-06-19T10:58:19.044Z,358
2018-06-19T10:59:23.636Z,367
2018-06-19T11:00:28.629Z,352
2018-06-19T11:01:33.791Z,342
2018-06-19T11:02:38.892Z,352
2018-06-19T11:03:44.377Z,367
2018-06-19T11:04:49.522Z,383
2018-06-19T11:05:54.693Z,392
2018-06-19T11:06:59.931Z,392
2018-06-19T11:08:04.797Z,377
2018-06-19T11:09:10.224Z,392
2018-06-19T11:10:15.631Z,433
2018-06-19T11:11:20.785Z,498
2018-06-19T11:12:27.293Z,569
2018-06-19T11:13:32.727Z,569
2018-06-19T11:14:37.322Z,563
2018-06-19T11:15:42.587Z,563
2018-06-19T11:16:47.908Z,528
2018-06-19T11:17:53.337Z,473
2018-06-19T11:18:58.657Z,473
2018-06-19T11:20:03.283Z,463
2018-06-19T11:21:08.562Z,433
2018-06-19T11:22:14.559Z,433
2018-06-19T11:23:19.999Z,442
2018-06-19T11:24:40.341Z,433
2018-06-19T11:25:45.674Z,417
2018-06-19T11:26:50.663Z,433
2018-06-19T11:27:55.789Z,463
2018-06-19T11:29:00.748Z,458
2018-06-19T11:30:06.089Z,448
2018-06-19T11:31:11.882Z,433
2018-06-19T11:32:16.753Z,423
2018-06-19T11:33:22.217Z,423
2018-06-19T11:34:28.101Z,392
2018-06-19T11:35:33.536Z,392
2018-06-19T11:36:38.752Z,408
2018-06-19T11:37:43.984Z,438
2018-06-19T11:38:48.878Z,438
2018-06-19T11:39:54.033Z,433
2018-06-19T11:40:58.898Z,433
2018-06-19T11:42:04.049Z,417
2018-06-19T11:43:09.860Z,392
2018-06-19T11:44:15.016Z,377
2018-06-19T11:45:19.939Z,383
2018-06-19T11:46:25.633Z,377
2018-06-19T11:47:30.779Z,408
2018-06-19T11:48:36.481Z,433
2018-06-19T11:49:41.658Z,442
2018-06-19T11:50:46.386Z,448
2018-06-19T11:51:52.066Z,463
2018-06-19T11:52:57.239Z,463
2018-06-19T11:54:02.116Z,488
2018-06-19T11:55:07.352Z,503
2018-06-19T11:56:12.509Z,478
2018-06-19T11:57:17.669Z,408
2018-06-19T11:58:23.085Z,377
2018-06-19T11:59:27.943Z,367
2018-06-19T12:00:33.468Z,352
2018-06-19T12:01:38.886Z,367
2018-06-19T12:02:44.042Z,352
2018-06-19T12:03:49.727Z,352
2018-06-19T12:04:55.171Z,352
2018-06-19T12:06:00.813Z,367
2018-06-19T12:07:05.937Z,392
2018-06-19T12:08:10.535Z,417
2018-06-19T12:09:15.435Z,433
2018-06-19T12:10:20.896Z,423
2018-06-19T12:11:25.839Z,392
2018-06-19T12:12:31.029Z,377
2018-06-19T12:13:36.487Z,383
2018-06-19T12:14:41.593Z,367
2018-06-19T12:15:47.375Z,367
2018-06-19T12:16:52.266Z,383
2018-06-19T12:17:57.734Z,383
2018-06-19T12:19:03.003Z,383
2018-06-19T12:20:08.166Z,398
2018-06-19T12:21:13.253Z,367
2018-06-19T12:22:18.829Z,383
2018-06-19T12:23:24.321Z,392
2018-06-19T12:24:29.742Z,377
2018-06-19T12:25:34.614Z,408
2018-06-19T12:26:40.066Z,423
2018-06-19T12:27:45.473Z,408
2018-06-19T12:28:51.120Z,392
2018-06-19T12:29:56.531Z,362
2018-06-19T12:31:02.437Z,392
2018-06-19T12:32:07.309Z,408
2018-06-19T12:33:13.988Z,433
2018-06-19T12:34:20.343Z,473
2018-06-19T12:35:25.505Z,498
2018-06-19T12:36:30.129Z,528
2018-06-19T12:37:35.745Z,523
2018-06-19T12:38:41.074Z,538
2018-06-19T12:39:46.814Z,528
2018-06-19T12:40:51.438Z,473
2018-06-19T12:41:56.593Z,433
2018-06-19T12:43:01.964Z,408
2018-06-19T12:44:06.922Z,408
2018-06-19T12:45:12.097Z,408
2018-06-19T12:46:17.746Z,417
2018-06-19T12:47:23.244Z,433
2018-06-19T12:48:28.526Z,473
2018-06-19T12:49:33.718Z,498
2018-06-19T12:50:38.042Z,528
2018-06-19T12:51:43.795Z,543
2018-06-19T12:52:48.966Z,498
2018-06-19T12:53:53.571Z,467
2018-06-19T12:54:59.140Z,473
2018-06-19T12:56:04.297Z,442
2018-06-19T12:57:09.467Z,433
2018-06-19T12:58:15.378Z,402
2018-06-19T12:59:20.547Z,417
2018-06-19T13:00:26.313Z,448
2018-06-19T13:01:31.442Z,458
2018-06-19T13:02:36.887Z,488
2018-06-19T13:03:42.576Z,483
2018-06-19T13:04:47.423Z,483
2018-06-19T13:05:52.860Z,498
2018-06-19T13:06:57.742Z,483
2018-06-19T13:08:02.900Z,483
2018-06-19T13:09:08.080Z,528
2018-06-19T13:10:13.492Z,543
2018-06-19T13:11:19.316Z,543
2018-06-19T13:12:24.382Z,513
2018-06-19T13:13:44.465Z,538
2018-06-19T13:14:49.617Z,578
2018-06-19T13:15:55.237Z,578
2018-06-19T13:17:00.724Z,569
2018-06-19T13:18:05.327Z,569
2018-06-19T13:19:10.554Z,547
2018-06-19T13:20:16.366Z,553
2018-06-19T13:21:21.265Z,563
2018-06-19T13:22:26.762Z,619
2018-06-19T13:23:31.373Z,619
2018-06-19T13:24:37.129Z,603
2018-06-19T13:25:42.286Z,634
2018-06-19T13:26:47.377Z,644
2018-06-19T13:27:53.172Z,644
2018-06-19T13:28:58.064Z,674
2018-06-19T13:30:03.369Z,674
2018-06-19T13:31:08.373Z,714
2018-06-19T13:32:13.534Z,684
2018-06-19T13:33:18.994Z,684
2018-06-19T13:34:24.406Z,674
2018-06-19T13:35:29.508Z,659
2018-06-19T13:36:34.520Z,603
2018-06-19T13:37:40.172Z,619
2018-06-19T13:38:45.533Z,674
2018-06-19T13:39:50.964Z,634
2018-06-19T13:40:56.408Z,644
2018-06-19T13:42:02.062Z,644
2018-06-19T13:43:06.991Z,634
2018-06-19T13:44:11.904Z,649
2018-06-19T13:45:17.365Z,644
2018-06-19T13:46:22.929Z,644
2018-06-19T13:47:27.817Z,674
2018-06-19T13:48:33.337Z,684
2018-06-19T13:49:38.340Z,699
2018-06-19T13:50:43.866Z,684
2018-06-19T13:51:49.020Z,649
2018-06-19T13:52:54.182Z,619
2018-06-19T13:53:59.366Z,619
2018-06-19T13:55:04.628Z,649
2018-06-19T13:56:09.822Z,619
2018-06-19T13:57:15.000Z,619
2018-06-19T13:58:19.849Z,603
2018-06-19T13:59:24.757Z,593
2018-06-19T14:00:29.623Z,593
2018-06-19T14:01:34.811Z,619
2018-06-19T14:02:40.024Z,578
2018-06-19T14:03:45.436Z,538
2018-06-19T14:04:50.612Z,513
2018-06-19T14:05:55.768Z,543
2018-06-19T14:07:01.005Z,569
2018-06-19T14:08:06.711Z,578
2018-06-19T14:09:12.615Z,578
2018-06-19T14:10:18.301Z,563
2018-06-19T14:11:23.461Z,538
2018-06-19T14:12:28.853Z,513
2018-06-19T14:13:34.286Z,353
2018-06-19T14:14:40.657Z,337
2018-06-19T14:15:45.785Z,313
2018-06-19T14:16:51.222Z,297
2018-06-19T14:17:56.679Z,289
2018-06-19T14:19:02.142Z,273
2018-06-19T14:20:06.482Z,273
2018-06-19T14:21:11.373Z,273
2018-06-19T14:22:17.406Z,289
2018-06-19T14:23:23.461Z,306
2018-06-19T14:24:29.178Z,306
2018-06-19T14:25:34.627Z,289
2018-06-19T14:26:39.498Z,306
2018-06-19T14:27:45.208Z,273
2018-06-19T14:28:50.720Z,240
2018-06-19T14:29:56.014Z,249
2018-06-19T14:31:01.721Z,216
2018-06-19T14:32:06.810Z,233
2018-06-19T14:33:12.524Z,249
2018-06-19T14:34:18.267Z,266
2018-06-19T14:35:23.655Z,266
2018-06-19T14:36:29.237Z,257
2018-06-19T14:37:34.699Z,273
2018-06-19T14:38:39.585Z,257
2018-06-19T14:39:45.181Z,257
2018-06-19T14:40:50.265Z,273
2018-06-19T14:41:55.152Z,306
2018-06-19T14:43:00.842Z,330
2018-06-19T14:44:05.438Z,330
2018-06-19T14:45:10.591Z,330
2018-06-19T14:46:15.830Z,313
2018-06-19T14:47:20.736Z,313
2018-06-19T14:48:26.514Z,330
2018-06-19T14:49:31.901Z,346
2018-06-19T14:50:37.058Z,330
2018-06-19T14:51:42.534Z,313
2018-06-19T14:52:47.695Z,313
2018-06-19T14:53:52.601Z,297
2018-06-19T14:54:57.695Z,297
2018-06-19T14:56:03.107Z,297
2018-06-19T14:57:08.269Z,297
2018-06-19T14:58:13.897Z,273
2018-06-19T14:59:19.366Z,257
2018-06-19T15:00:39.729Z,313
2018-06-19T15:01:45.075Z,353
2018-06-19T15:02:50.053Z,386
2018-06-19T15:03:55.485Z,370
2018-06-19T15:05:00.642Z,362
2018-06-19T15:06:05.529Z,337
2018-06-19T15:07:10.892Z,353
2018-06-19T15:08:16.057Z,394
2018-06-19T15:09:21.498Z,434
2018-06-19T15:10:27.066Z,450
2018-06-19T15:11:32.490Z,442
2018-06-19T15:12:37.903Z,434
2018-06-19T15:13:43.080Z,489
2018-06-19T15:14:48.441Z,489
2018-06-19T15:15:54.009Z,330
2018-06-19T15:16:59.182Z,257
2018-06-19T15:18:04.358Z,249
2018-06-19T15:19:09.784Z,233
2018-06-19T15:20:15.375Z,216
2018-06-19T15:21:20.823Z,233
2018-06-19T15:22:26.123Z,266
2018-06-19T15:23:31.576Z,257
2018-06-19T15:24:36.537Z,257
2018-06-19T15:25:41.699Z,266